Chacon, New Mexico
Current Conditions -  °F | °C
As of 5:15 AM on Saturday 25 Oct 2014 (Local Time) from KAXX Reporting Station
Clear Clear  
Wind Chill: 22°   Ceiling: Unl
Heat Index: 22°   Visibility: 10mi
Dew Point: 18°   Wind: 0mph
Humidity: 85%   Direction: NA
Pressure: 30.47"   Gusts: NA
Location:  36.14°N, 105.37°W
Report Text: KAXX 251115Z AUTO 00000KT 10SM CLR M05/M08 A3047 RMK AO2 T10541076
Loading
Personal Weather Stations






























Interactive Weather Map
Tropical Storm Tracking
New forecast layout! Learn more

10-Day Weather Forecast

Advertisements
Track Severe Weather on mobile